sensor_id;sensor_type;location;lat;lon;timestamp;temperature;humidity
11908;DHT22;6014;47.690;9.130;2023-11-21T00:01:37;8.70;99.90
11908;DHT22;6014;47.690;9.130;2023-11-21T00:04:05;8.70;99.90
11908;DHT22;6014;47.690;9.130;2023-11-21T00:06:35;8.70;99.90
11908;DHT22;6014;47.690;9.130;2023-11-21T00:09:03;8.70;99.90
11908;DHT22;6014;47.690;9.130;2023-11-21T00:11:31;8.80;99.90
11908;DHT22;6014;47.690;9.130;2023-11-21T00:14:04;8.80;99.90
11908;DHT22;6014;47.690;9.130;2023-11-21T00:16:32;8.70;99.90
11908;DHT22;6014;47.690;9.130;2023-11-21T00:19:03;8.70;99.90
11908;DHT22;6014;47.690;9.130;2023-11-21T00:21:31;8.60;99.90
11908;DHT22;6014;47.690;9.130;2023-11-21T00:23:59;8.60;99.90
11908;DHT22;6014;47.690;9.130;2023-11-21T00:26:28;8.60;99.90
11908;DHT22;6014;47.690;9.130;2023-11-21T00:28:57;8.60;99.90
11908;DHT22;6014;47.690;9.130;2023-11-21T00:31:26;8.60;99.90
11908;DHT22;6014;47.690;9.130;2023-11-21T00:33:54;8.50;99.90
11908;DHT22;6014;47.690;9.130;2023-11-21T00:36:24;8.40;99.90
11908;DHT22;6014;47.690;9.130;2023-11-21T00:38:54;8.30;99.90
11908;DHT22;6014;47.690;9.130;2023-11-21T00:41:22;8.20;99.90
11908;DHT22;6014;47.690;9.130;2023-11-21T00:43:50;8.30;99.90
11908;DHT22;6014;47.690;9.130;2023-11-21T00:46:18;8.30;99.90
11908;DHT22;6014;47.690;9.130;2023-11-21T00:48:46;8.20;99.90
11908;DHT22;6014;47.690;9.130;2023-11-21T00:51:14;8.10;99.90
11908;DHT22;6014;47.690;9.130;2023-11-21T00:53:44;8.00;99.90
11908;DHT22;6014;47.690;9.130;2023-11-21T00:56:21;8.00;99.90
11908;DHT22;6014;47.690;9.130;2023-11-21T00:58:49;8.10;99.90
11908;DHT22;6014;47.690;9.130;2023-11-21T01:01:21;8.00;99.90
11908;DHT22;6014;47.690;9.130;2023-11-21T01:03:50;8.10;99.90
11908;DHT22;6014;47.690;9.130;2023-11-21T01:06:18;8.00;99.90
11908;DHT22;6014;47.690;9.130;2023-11-21T01:08:48;8.10;99.90
11908;DHT22;6014;47.690;9.130;2023-11-21T01:11:22;8.00;99.90
11908;DHT22;6014;47.690;9.130;2023-11-21T01:14:05;8.00;99.90
11908;DHT22;6014;47.690;9.130;2023-11-21T01:16:35;8.10;99.90
11908;DHT22;6014;47.690;9.130;2023-11-21T01:19:03;7.90;99.90
11908;DHT22;6014;47.690;9.130;2023-11-21T01:21:32;7.80;99.90
11908;DHT22;6014;47.690;9.130;2023-11-21T01:24:16;8.00;99.90
11908;DHT22;6014;47.690;9.130;2023-11-21T01:26:44;8.10;99.90
11908;DHT22;6014;47.690;9.130;2023-11-21T01:29:13;8.10;99.90
11908;DHT22;6014;47.690;9.130;2023-11-21T01:31:41;8.10;99.90
11908;DHT22;6014;47.690;9.130;2023-11-21T01:34:10;8.00;99.90
11908;DHT22;6014;47.690;9.130;2023-11-21T01:36:38;8.00;99.90
11908;DHT22;6014;47.690;9.130;2023-11-21T01:39:06;8.10;99.90
11908;DHT22;6014;47.690;9.130;2023-11-21T01:41:37;8.00;99.90
11908;DHT22;6014;47.690;9.130;2023-11-21T01:44:05;8.10;99.90
11908;DHT22;6014;47.690;9.130;2023-11-21T01:46:34;8.20;99.90
11908;DHT22;6014;47.690;9.130;2023-11-21T01:49:03;8.10;99.90
11908;DHT22;6014;47.690;9.130;2023-11-21T01:51:31;8.10;99.90
11908;DHT22;6014;47.690;9.130;2023-11-21T01:53:59;8.20;99.90
11908;DHT22;6014;47.690;9.130;2023-11-21T01:56:27;8.10;99.90
11908;DHT22;6014;47.690;9.130;2023-11-21T01:59:06;8.10;99.90
11908;DHT22;6014;47.690;9.130;2023-11-21T02:01:34;8.10;99.90
11908;DHT22;6014;47.690;9.130;2023-11-21T02:04:03;8.10;99.90
11908;DHT22;6014;47.690;9.130;2023-11-21T02:06:31;8.10;99.90
11908;DHT22;6014;47.690;9.130;2023-11-21T02:09:00;8.20;99.90
11908;DHT22;6014;47.690;9.130;2023-11-21T02:11:31;8.20;99.90
11908;DHT22;6014;47.690;9.130;2023-11-21T02:14:01;8.20;99.90
11908;DHT22;6014;47.690;9.130;2023-11-21T02:16:31;8.20;99.90
11908;DHT22;6014;47.690;9.130;2023-11-21T02:19:00;8.20;99.90
11908;DHT22;6014;47.690;9.130;2023-11-21T02:21:29;8.20;99.90
11908;DHT22;6014;47.690;9.130;2023-11-21T02:23:59;8.20;99.90
11908;DHT22;6014;47.690;9.130;2023-11-21T02:26:27;8.40;99.90
11908;DHT22;6014;47.690;9.130;2023-11-21T02:29:11;8.40;99.90
11908;DHT22;6014;47.690;9.130;2023-11-21T02:31:40;8.30;99.90
11908;DHT22;6014;47.690;9.130;2023-11-21T02:34:15;8.30;99.90
11908;DHT22;6014;47.690;9.130;2023-11-21T02:36:44;8.20;99.90
11908;DHT22;6014;47.690;9.130;2023-11-21T02:39:13;8.20;99.90
11908;DHT22;6014;47.690;9.130;2023-11-21T02:41:42;8.20;99.90
11908;DHT22;6014;47.690;9.130;2023-11-21T02:44:10;8.10;99.90
11908;DHT22;6014;47.690;9.130;2023-11-21T02:46:38;8.10;99.90
11908;DHT22;6014;47.690;9.130;2023-11-21T02:49:07;8.00;99.90
11908;DHT22;6014;47.690;9.130;2023-11-21T02:51:37;7.90;99.90
11908;DHT22;6014;47.690;9.130;2023-11-21T02:54:06;7.80;99.90
11908;DHT22;6014;47.690;9.130;2023-11-21T02:56:48;7.80;99.90
11908;DHT22;6014;47.690;9.130;2023-11-21T02:59:17;7.70;99.90
11908;DHT22;6014;47.690;9.130;2023-11-21T03:01:46;7.70;99.90
11908;DHT22;6014;47.690;9.130;2023-11-21T03:04:14;7.70;99.90
11908;DHT22;6014;47.690;9.130;2023-11-21T03:06:44;7.70;99.90
11908;DHT22;6014;47.690;9.130;2023-11-21T03:09:12;7.60;99.90
11908;DHT22;6014;47.690;9.130;2023-11-21T03:11:47;7.60;99.90
11908;DHT22;6014;47.690;9.130;2023-11-21T03:14:15;7.50;99.90
11908;DHT22;6014;47.690;9.130;2023-11-21T03:16:43;7.50;99.90
11908;DHT22;6014;47.690;9.130;2023-11-21T03:19:12;7.40;99.90
11908;DHT22;6014;47.690;9.130;2023-11-21T03:21:42;7.40;99.90
11908;DHT22;6014;47.690;9.130;2023-11-21T03:24:10;7.40;99.90
11908;DHT22;6014;47.690;9.130;2023-11-21T03:26:38;7.30;99.90
11908;DHT22;6014;47.690;9.130;2023-11-21T03:29:08;7.40;99.90
11908;DHT22;6014;47.690;9.130;2023-11-21T03:31:36;7.40;99.90
11908;DHT22;6014;47.690;9.130;2023-11-21T03:34:04;7.40;99.90
11908;DHT22;6014;47.690;9.130;2023-11-21T03:36:33;7.40;99.90
11908;DHT22;6014;47.690;9.130;2023-11-21T03:39:01;7.40;99.90
11908;DHT22;6014;47.690;9.130;2023-11-21T03:41:35;7.30;99.90
11908;DHT22;6014;47.690;9.130;2023-11-21T03:44:04;7.30;99.90
11908;DHT22;6014;47.690;9.130;2023-11-21T03:46:33;7.30;99.90
11908;DHT22;6014;47.690;9.130;2023-11-21T03:49:01;7.30;99.90
11908;DHT22;6014;47.690;9.130;2023-11-21T03:51:30;7.30;99.90
11908;DHT22;6014;47.690;9.130;2023-11-21T03:53:58;7.20;99.90
11908;DHT22;6014;47.690;9.130;2023-11-21T03:56:26;7.20;99.90
11908;DHT22;6014;47.690;9.130;2023-11-21T03:58:58;7.20;99.90
11908;DHT22;6014;47.690;9.130;2023-11-21T04:01:26;7.20;99.90
11908;DHT22;6014;47.690;9.130;2023-11-21T04:03:55;7.20;99.90
11908;DHT22;6014;47.690;9.130;2023-11-21T04:06:24;7.30;99.90
11908;DHT22;6014;47.690;9.130;2023-11-21T04:08:53;7.20;99.90
11908;DHT22;6014;47.690;9.130;2023-11-21T04:11:21;7.30;99.90
11908;DHT22;6014;47.690;9.130;2023-11-21T04:13:49;7.30;99.90
11908;DHT22;6014;47.690;9.130;2023-11-21T04:16:29;7.30;99.90
11908;DHT22;6014;47.690;9.130;2023-11-21T04:18:59;7.40;99.90
11908;DHT22;6014;47.690;9.130;2023-11-21T04:21:27;7.40;99.90
11908;DHT22;6014;47.690;9.130;2023-11-21T04:23:55;7.50;99.90
11908;DHT22;6014;47.690;9.130;2023-11-21T04:26:23;7.40;99.90
11908;DHT22;6014;47.690;9.130;2023-11-21T04:28:51;7.50;99.90
11908;DHT22;6014;47.690;9.130;2023-11-21T04:31:19;7.50;99.90
11908;DHT22;6014;47.690;9.130;2023-11-21T04:33:56;7.50;99.90
11908;DHT22;6014;47.690;9.130;2023-11-21T04:36:25;7.50;99.90
11908;DHT22;6014;47.690;9.130;2023-11-21T04:38:53;7.50;99.90
11908;DHT22;6014;47.690;9.130;2023-11-21T04:41:21;7.50;99.90
11908;DHT22;6014;47.690;9.130;2023-11-21T04:43:49;7.50;99.90
11908;DHT22;6014;47.690;9.130;2023-11-21T04:46:17;7.40;99.90
11908;DHT22;6014;47.690;9.130;2023-11-21T04:48:46;7.40;99.90
11908;DHT22;6014;47.690;9.130;2023-11-21T04:51:14;7.40;99.90
11908;DHT22;6014;47.690;9.130;2023-11-21T04:54:07;7.40;99.90
11908;DHT22;6014;47.690;9.130;2023-11-21T04:56:35;7.40;99.90
11908;DHT22;6014;47.690;9.130;2023-11-21T04:59:03;7.40;99.90
11908;DHT22;6014;47.690;9.130;2023-11-21T05:01:37;7.50;99.90
11908;DHT22;6014;47.690;9.130;2023-11-21T05:04:05;7.60;99.90
11908;DHT22;6014;47.690;9.130;2023-11-21T05:06:35;7.50;99.90
11908;DHT22;6014;47.690;9.130;2023-11-21T05:09:03;7.40;99.90
11908;DHT22;6014;47.690;9.130;2023-11-21T05:11:34;7.50;99.90
11908;DHT22;6014;47.690;9.130;2023-11-21T05:14:02;7.50;99.90
11908;DHT22;6014;47.690;9.130;2023-11-21T05:16:30;7.50;99.90
11908;DHT22;6014;47.690;9.130;2023-11-21T05:18:58;7.60;99.90
11908;DHT22;6014;47.690;9.130;2023-11-21T05:24:25;7.60;99.90
11908;DHT22;6014;47.690;9.130;2023-11-21T05:26:55;7.60;99.90
11908;DHT22;6014;47.690;9.130;2023-11-21T05:29:24;7.60;99.90
11908;DHT22;6014;47.690;9.130;2023-11-21T05:31:52;7.70;99.90
11908;DHT22;6014;47.690;9.130;2023-11-21T05:34:20;7.70;99.90
11908;DHT22;6014;47.690;9.130;2023-11-21T05:36:50;7.60;99.90
11908;DHT22;6014;47.690;9.130;2023-11-21T05:39:19;7.70;99.90
11908;DHT22;6014;47.690;9.130;2023-11-21T05:41:58;7.60;99.90
11908;DHT22;6014;47.690;9.130;2023-11-21T05:44:26;7.60;99.90
11908;DHT22;6014;47.690;9.130;2023-11-21T05:46:54;7.70;99.90
11908;DHT22;6014;47.690;9.130;2023-11-21T05:49:24;7.60;99.90
11908;DHT22;6014;47.690;9.130;2023-11-21T05:51:53;7.70;99.90
11908;DHT22;6014;47.690;9.130;2023-11-21T05:54:21;7.70;99.90
11908;DHT22;6014;47.690;9.130;2023-11-21T05:56:50;7.80;99.90
11908;DHT22;6014;47.690;9.130;2023-11-21T05:59:20;7.70;99.90
11908;DHT22;6014;47.690;9.130;2023-11-21T06:01:51;7.60;99.90
11908;DHT22;6014;47.690;9.130;2023-11-21T06:04:20;7.70;99.90
11908;DHT22;6014;47.690;9.130;2023-11-21T06:06:52;7.70;99.90
11908;DHT22;6014;47.690;9.130;2023-11-21T06:09:21;7.70;99.90
11908;DHT22;6014;47.690;9.130;2023-11-21T06:11:49;7.70;99.90
11908;DHT22;6014;47.690;9.130;2023-11-21T06:14:17;7.70;99.90
11908;DHT22;6014;47.690;9.130;2023-11-21T06:16:47;7.70;99.90
11908;DHT22;6014;47.690;9.130;2023-11-21T06:19:18;7.70;99.90
11908;DHT22;6014;47.690;9.130;2023-11-21T06:21:46;7.80;99.90
11908;DHT22;6014;47.690;9.130;2023-11-21T06:24:14;7.80;99.90
11908;DHT22;6014;47.690;9.130;2023-11-21T06:26:44;7.80;99.90
11908;DHT22;6014;47.690;9.130;2023-11-21T06:29:12;7.80;99.90
11908;DHT22;6014;47.690;9.130;2023-11-21T06:31:41;7.70;99.90
11908;DHT22;6014;47.690;9.130;2023-11-21T06:34:13;7.80;99.90
11908;DHT22;6014;47.690;9.130;2023-11-21T06:36:41;7.80;99.90
11908;DHT22;6014;47.690;9.130;2023-11-21T06:39:10;7.80;99.90
11908;DHT22;6014;47.690;9.130;2023-11-21T06:41:37;7.80;99.90
11908;DHT22;6014;47.690;9.130;2023-11-21T06:44:06;7.80;99.90
11908;DHT22;6014;47.690;9.130;2023-11-21T06:46:35;7.70;99.90
11908;DHT22;6014;47.690;9.130;2023-11-21T06:49:05;7.80;99.90
11908;DHT22;6014;47.690;9.130;2023-11-21T06:51:35;7.70;99.90
11908;DHT22;6014;47.690;9.130;2023-11-21T06:54:04;7.70;99.90
11908;DHT22;6014;47.690;9.130;2023-11-21T06:56:33;7.80;99.90
11908;DHT22;6014;47.690;9.130;2023-11-21T06:59:03;7.70;99.90
11908;DHT22;6014;47.690;9.130;2023-11-21T07:01:35;7.80;99.90
11908;DHT22;6014;47.690;9.130;2023-11-21T07:04:06;7.80;99.90
11908;DHT22;6014;47.690;9.130;2023-11-21T07:06:38;7.80;99.90
11908;DHT22;6014;47.690;9.130;2023-11-21T07:09:06;7.80;99.90
11908;DHT22;6014;47.690;9.130;2023-11-21T07:11:35;7.80;99.90
11908;DHT22;6014;47.690;9.130;2023-11-21T07:14:04;7.80;99.90
11908;DHT22;6014;47.690;9.130;2023-11-21T07:16:36;7.80;99.90
11908;DHT22;6014;47.690;9.130;2023-11-21T07:19:04;7.90;99.90
11908;DHT22;6014;47.690;9.130;2023-11-21T07:21:34;7.90;99.90
11908;DHT22;6014;47.690;9.130;2023-11-21T07:24:04;8.00;99.90
11908;DHT22;6014;47.690;9.130;2023-11-21T07:26:33;8.00;99.90
11908;DHT22;6014;47.690;9.130;2023-11-21T07:29:04;8.00;99.90
11908;DHT22;6014;47.690;9.130;2023-11-21T07:31:34;7.90;99.90
11908;DHT22;6014;47.690;9.130;2023-11-21T07:34:03;8.00;99.90
11908;DHT22;6014;47.690;9.130;2023-11-21T07:36:31;8.00;99.90
11908;DHT22;6014;47.690;9.130;2023-11-21T07:39:00;8.00;99.90
11908;DHT22;6014;47.690;9.130;2023-11-21T07:41:31;8.00;99.90
11908;DHT22;6014;47.690;9.130;2023-11-21T07:43:59;8.00;99.90
11908;DHT22;6014;47.690;9.130;2023-11-21T07:46:27;8.10;99.90
11908;DHT22;6014;47.690;9.130;2023-11-21T07:48:55;8.10;99.90
11908;DHT22;6014;47.690;9.130;2023-11-21T07:51:23;8.20;99.90
11908;DHT22;6014;47.690;9.130;2023-11-21T07:53:51;8.20;99.90
11908;DHT22;6014;47.690;9.130;2023-11-21T07:56:20;8.20;99.90
11908;DHT22;6014;47.690;9.130;2023-11-21T07:58:49;8.40;99.90
11908;DHT22;6014;47.690;9.130;2023-11-21T08:01:20;8.40;99.90
11908;DHT22;6014;47.690;9.130;2023-11-21T08:03:48;8.40;99.90
11908;DHT22;6014;47.690;9.130;2023-11-21T08:06:19;8.40;99.90
11908;DHT22;6014;47.690;9.130;2023-11-21T08:08:47;8.50;99.90
11908;DHT22;6014;47.690;9.130;2023-11-21T08:11:17;8.50;99.90
11908;DHT22;6014;47.690;9.130;2023-11-21T08:13:51;8.60;99.90
11908;DHT22;6014;47.690;9.130;2023-11-21T08:16:20;8.50;99.90
11908;DHT22;6014;47.690;9.130;2023-11-21T08:18:54;8.50;99.90
11908;DHT22;6014;47.690;9.130;2023-11-21T08:21:22;8.60;99.90
11908;DHT22;6014;47.690;9.130;2023-11-21T08:23:51;8.70;99.90
11908;DHT22;6014;47.690;9.130;2023-11-21T08:26:21;8.80;99.90
11908;DHT22;6014;47.690;9.130;2023-11-21T08:28:51;8.90;99.90
11908;DHT22;6014;47.690;9.130;2023-11-21T08:31:24;8.80;99.90
11908;DHT22;6014;47.690;9.130;2023-11-21T08:33:54;8.80;99.90
11908;DHT22;6014;47.690;9.130;2023-11-21T08:36:23;8.80;99.90
11908;DHT22;6014;47.690;9.130;2023-11-21T08:38:52;8.80;99.90
11908;DHT22;6014;47.690;9.130;2023-11-21T08:41:20;8.80;99.90
11908;DHT22;6014;47.690;9.130;2023-11-21T08:43:50;8.80;99.90
11908;DHT22;6014;47.690;9.130;2023-11-21T08:46:19;8.80;99.90
11908;DHT22;6014;47.690;9.130;2023-11-21T08:48:48;8.90;99.90
11908;DHT22;6014;47.690;9.130;2023-11-21T08:51:25;8.90;99.90
11908;DHT22;6014;47.690;9.130;2023-11-21T08:53:53;8.90;99.90
11908;DHT22;6014;47.690;9.130;2023-11-21T08:56:21;8.90;99.90
11908;DHT22;6014;47.690;9.130;2023-11-21T08:58:51;9.00;99.90
11908;DHT22;6014;47.690;9.130;2023-11-21T09:01:20;8.90;99.90
11908;DHT22;6014;47.690;9.130;2023-11-21T09:03:48;9.00;99.90
11908;DHT22;6014;47.690;9.130;2023-11-21T09:06:35;9.20;99.90
11908;DHT22;6014;47.690;9.130;2023-11-21T09:09:04;8.90;99.90
11908;DHT22;6014;47.690;9.130;2023-11-21T09:11:32;8.80;99.90
11908;DHT22;6014;47.690;9.130;2023-11-21T09:14:03;8.80;99.90
11908;DHT22;6014;47.690;9.130;2023-11-21T09:16:32;8.90;99.90
11908;DHT22;6014;47.690;9.130;2023-11-21T09:19:00;8.70;99.90
11908;DHT22;6014;47.690;9.130;2023-11-21T09:21:32;8.90;99.90
11908;DHT22;6014;47.690;9.130;2023-11-21T09:24:03;8.90;99.90
11908;DHT22;6014;47.690;9.130;2023-11-21T09:26:31;8.80;99.90
11908;DHT22;6014;47.690;9.130;2023-11-21T09:28:59;8.90;99.90
11908;DHT22;6014;47.690;9.130;2023-11-21T09:31:30;9.00;99.90
11908;DHT22;6014;47.690;9.130;2023-11-21T09:34:00;9.20;99.90
11908;DHT22;6014;47.690;9.130;2023-11-21T09:36:29;9.20;99.90
11908;DHT22;6014;47.690;9.130;2023-11-21T09:38:57;9.20;99.90
11908;DHT22;6014;47.690;9.130;2023-11-21T09:41:31;9.10;99.90
11908;DHT22;6014;47.690;9.130;2023-11-21T09:44:03;9.20;99.90
11908;DHT22;6014;47.690;9.130;2023-11-21T09:46:35;9.30;99.90
11908;DHT22;6014;47.690;9.130;2023-11-21T09:49:09;9.40;99.90
11908;DHT22;6014;47.690;9.130;2023-11-21T09:51:39;9.30;99.90
11908;DHT22;6014;47.690;9.130;2023-11-21T09:54:10;9.20;99.90
11908;DHT22;6014;47.690;9.130;2023-11-21T09:56:38;9.30;99.90
11908;DHT22;6014;47.690;9.130;2023-11-21T09:59:07;9.30;99.90
11908;DHT22;6014;47.690;9.130;2023-11-21T10:01:38;9.20;99.90
11908;DHT22;6014;47.690;9.130;2023-11-21T10:04:08;9.20;99.90
11908;DHT22;6014;47.690;9.130;2023-11-21T10:06:39;9.30;99.90
11908;DHT22;6014;47.690;9.130;2023-11-21T10:09:10;9.40;99.90
11908;DHT22;6014;47.690;9.130;2023-11-21T10:11:41;9.60;99.90
11908;DHT22;6014;47.690;9.130;2023-11-21T10:14:11;9.70;99.90
11908;DHT22;6014;47.690;9.130;2023-11-21T10:16:44;9.70;99.90
11908;DHT22;6014;47.690;9.130;2023-11-21T10:19:14;9.80;99.90
11908;DHT22;6014;47.690;9.130;2023-11-21T10:21:44;9.90;99.90
11908;DHT22;6014;47.690;9.130;2023-11-21T10:24:12;9.90;99.90
11908;DHT22;6014;47.690;9.130;2023-11-21T10:26:40;10.00;99.90
11908;DHT22;6014;47.690;9.130;2023-11-21T10:29:19;10.10;99.90
11908;DHT22;6014;47.690;9.130;2023-11-21T10:31:50;10.30;99.90
11908;DHT22;6014;47.690;9.130;2023-11-21T10:34:21;10.50;99.90
11908;DHT22;6014;47.690;9.130;2023-11-21T10:36:49;11.00;99.90
11908;DHT22;6014;47.690;9.130;2023-11-21T10:39:18;11.10;99.90
11908;DHT22;6014;47.690;9.130;2023-11-21T10:41:46;11.20;99.90
11908;DHT22;6014;47.690;9.130;2023-11-21T10:44:15;11.40;99.90
11908;DHT22;6014;47.690;9.130;2023-11-21T10:46:50;11.50;99.90
11908;DHT22;6014;47.690;9.130;2023-11-21T10:49:24;11.20;99.90
11908;DHT22;6014;47.690;9.130;2023-11-21T10:51:54;11.10;99.90
11908;DHT22;6014;47.690;9.130;2023-11-21T10:54:24;10.90;99.90
11908;DHT22;6014;47.690;9.130;2023-11-21T10:56:57;11.00;99.90
11908;DHT22;6014;47.690;9.130;2023-11-21T10:59:31;10.70;99.90
11908;DHT22;6014;47.690;9.130;2023-11-21T11:02:03;10.80;99.90
11908;DHT22;6014;47.690;9.130;2023-11-21T11:04:36;10.70;99.90
11908;DHT22;6014;47.690;9.130;2023-11-21T11:07:06;10.40;99.90
11908;DHT22;6014;47.690;9.130;2023-11-21T11:09:37;10.00;99.90
11908;DHT22;6014;47.690;9.130;2023-11-21T11:12:06;9.60;99.90
11908;DHT22;6014;47.690;9.130;2023-11-21T11:14:34;9.40;99.90
11908;DHT22;6014;47.690;9.130;2023-11-21T11:17:04;9.30;99.90
11908;DHT22;6014;47.690;9.130;2023-11-21T11:19:34;9.20;99.90
11908;DHT22;6014;47.690;9.130;2023-11-21T11:22:11;9.20;99.90
11908;DHT22;6014;47.690;9.130;2023-11-21T11:24:53;9.20;99.90
11908;DHT22;6014;47.690;9.130;2023-11-21T11:27:34;9.00;99.90
11908;DHT22;6014;47.690;9.130;2023-11-21T11:30:11;9.00;99.90
11908;DHT22;6014;47.690;9.130;2023-11-21T11:32:54;9.10;99.90
11908;DHT22;6014;47.690;9.130;2023-11-21T11:35:37;9.10;99.90
11908;DHT22;6014;47.690;9.130;2023-11-21T11:38:06;9.10;99.90
11908;DHT22;6014;47.690;9.130;2023-11-21T11:40:44;9.20;99.90
11908;DHT22;6014;47.690;9.130;2023-11-21T11:43:13;9.00;99.90
11908;DHT22;6014;47.690;9.130;2023-11-21T11:45:42;8.90;99.90
11908;DHT22;6014;47.690;9.130;2023-11-21T11:48:16;8.80;99.90
11908;DHT22;6014;47.690;9.130;2023-11-21T11:51:03;8.80;99.90
11908;DHT22;6014;47.690;9.130;2023-11-21T11:53:36;8.80;99.90
11908;DHT22;6014;47.690;9.130;2023-11-21T11:56:25;8.70;99.90
11908;DHT22;6014;47.690;9.130;2023-11-21T11:58:54;8.60;99.90
11908;DHT22;6014;47.690;9.130;2023-11-21T12:01:25;8.50;99.90
11908;DHT22;6014;47.690;9.130;2023-11-21T12:04:26;8.50;99.90
11908;DHT22;6014;47.690;9.130;2023-11-21T12:07:03;8.60;99.90
11908;DHT22;6014;47.690;9.130;2023-11-21T12:09:32;8.60;99.90
11908;DHT22;6014;47.690;9.130;2023-11-21T12:23:26;8.70;99.90
11908;DHT22;6014;47.690;9.130;2023-11-21T12:25:55;8.70;99.90
11908;DHT22;6014;47.690;9.130;2023-11-21T12:28:24;8.90;99.90
11908;DHT22;6014;47.690;9.130;2023-11-21T12:30:52;9.00;99.90
11908;DHT22;6014;47.690;9.130;2023-11-21T12:33:34;9.20;99.90
11908;DHT22;6014;47.690;9.130;2023-11-21T12:36:04;9.50;99.90
11908;DHT22;6014;47.690;9.130;2023-11-21T12:38:35;10.00;99.90
11908;DHT22;6014;47.690;9.130;2023-11-21T12:41:03;10.30;99.90
11908;DHT22;6014;47.690;9.130;2023-11-21T12:43:35;10.80;99.90
11908;DHT22;6014;47.690;9.130;2023-11-21T12:46:06;10.70;99.90
11908;DHT22;6014;47.690;9.130;2023-11-21T12:48:36;11.10;99.90
11908;DHT22;6014;47.690;9.130;2023-11-21T12:51:06;11.60;99.90
11908;DHT22;6014;47.690;9.130;2023-11-21T12:53:37;11.90;99.90
11908;DHT22;6014;47.690;9.130;2023-11-21T12:56:07;12.10;99.90
11908;DHT22;6014;47.690;9.130;2023-11-21T12:58:36;12.50;99.90
11908;DHT22;6014;47.690;9.130;2023-11-21T13:01:06;11.80;99.90
11908;DHT22;6014;47.690;9.130;2023-11-21T13:03:41;11.70;99.90
11908;DHT22;6014;47.690;9.130;2023-11-21T13:06:31;11.90;99.90
11908;DHT22;6014;47.690;9.130;2023-11-21T13:09:06;11.70;99.90
11908;DHT22;6014;47.690;9.130;2023-11-21T13:11:37;12.00;99.90
11908;DHT22;6014;47.690;9.130;2023-11-21T13:14:07;11.80;99.90
11908;DHT22;6014;47.690;9.130;2023-11-21T13:16:38;11.80;99.90
11908;DHT22;6014;47.690;9.130;2023-11-21T13:19:13;11.20;99.90
11908;DHT22;6014;47.690;9.130;2023-11-21T13:21:41;11.00;99.90
11908;DHT22;6014;47.690;9.130;2023-11-21T13:24:12;11.00;99.90
11908;DHT22;6014;47.690;9.130;2023-11-21T13:26:41;10.90;99.90
11908;DHT22;6014;47.690;9.130;2023-11-21T13:29:09;10.80;99.90
11908;DHT22;6014;47.690;9.130;2023-11-21T13:31:39;10.80;99.90
11908;DHT22;6014;47.690;9.130;2023-11-21T13:34:08;10.50;99.90
11908;DHT22;6014;47.690;9.130;2023-11-21T13:36:46;10.40;99.90
11908;DHT22;6014;47.690;9.130;2023-11-21T13:39:16;10.20;99.90
11908;DHT22;6014;47.690;9.130;2023-11-21T13:41:45;10.10;99.90
11908;DHT22;6014;47.690;9.130;2023-11-21T13:44:17;9.90;99.90
11908;DHT22;6014;47.690;9.130;2023-11-21T13:47:07;9.80;99.90
11908;DHT22;6014;47.690;9.130;2023-11-21T13:49:35;9.80;99.90
11908;DHT22;6014;47.690;9.130;2023-11-21T13:52:07;9.80;99.90
11908;DHT22;6014;47.690;9.130;2023-11-21T13:54:39;9.80;99.90
11908;DHT22;6014;47.690;9.130;2023-11-21T13:57:07;9.80;99.90
11908;DHT22;6014;47.690;9.130;2023-11-21T13:59:36;9.70;99.90
11908;DHT22;6014;47.690;9.130;2023-11-21T14:02:04;9.70;99.90
11908;DHT22;6014;47.690;9.130;2023-11-21T14:04:45;9.50;99.90
11908;DHT22;6014;47.690;9.130;2023-11-21T14:07:23;9.30;99.90
11908;DHT22;6014;47.690;9.130;2023-11-21T14:10:01;9.10;99.90
11908;DHT22;6014;47.690;9.130;2023-11-21T14:12:30;9.00;99.90
11908;DHT22;6014;47.690;9.130;2023-11-21T14:15:11;8.90;99.90
11908;DHT22;6014;47.690;9.130;2023-11-21T14:17:44;8.60;99.90
11908;DHT22;6014;47.690;9.130;2023-11-21T14:20:12;8.70;99.90
11908;DHT22;6014;47.690;9.130;2023-11-21T14:22:43;8.60;99.90
11908;DHT22;6014;47.690;9.130;2023-11-21T14:25:13;8.80;99.90
11908;DHT22;6014;47.690;9.130;2023-11-21T14:30:48;9.10;99.90
11908;DHT22;6014;47.690;9.130;2023-11-21T14:33:15;9.00;99.90
11908;DHT22;6014;47.690;9.130;2023-11-21T14:35:44;9.00;99.90
11908;DHT22;6014;47.690;9.130;2023-11-21T14:38:13;8.90;99.90
11908;DHT22;6014;47.690;9.130;2023-11-21T14:40:43;8.80;99.90
11908;DHT22;6014;47.690;9.130;2023-11-21T14:43:11;8.80;99.90
11908;DHT22;6014;47.690;9.130;2023-11-21T14:45:39;8.90;99.90
11908;DHT22;6014;47.690;9.130;2023-11-21T14:48:07;8.90;99.90
11908;DHT22;6014;47.690;9.130;2023-11-21T14:50:43;9.00;99.90
11908;DHT22;6014;47.690;9.130;2023-11-21T14:53:38;9.20;99.90
11908;DHT22;6014;47.690;9.130;2023-11-21T14:56:13;9.30;99.90
11908;DHT22;6014;47.690;9.130;2023-11-21T14:58:49;9.30;99.90
11908;DHT22;6014;47.690;9.130;2023-11-21T15:01:17;9.40;99.90
11908;DHT22;6014;47.690;9.130;2023-11-21T15:04:02;9.20;99.90
11908;DHT22;6014;47.690;9.130;2023-11-21T15:06:30;9.20;99.90
11908;DHT22;6014;47.690;9.130;2023-11-21T15:08:58;9.00;99.90
11908;DHT22;6014;47.690;9.130;2023-11-21T15:11:45;9.00;99.90
11908;DHT22;6014;47.690;9.130;2023-11-21T15:14:24;9.00;99.90
11908;DHT22;6014;47.690;9.130;2023-11-21T15:16:58;9.00;99.90
11908;DHT22;6014;47.690;9.130;2023-11-21T15:19:27;9.10;99.90
11908;DHT22;6014;47.690;9.130;2023-11-21T15:22:05;9.10;99.90
11908;DHT22;6014;47.690;9.130;2023-11-21T15:24:34;9.20;99.90
11908;DHT22;6014;47.690;9.130;2023-11-21T15:27:04;9.10;99.90
11908;DHT22;6014;47.690;9.130;2023-11-21T15:29:32;9.00;99.90
11908;DHT22;6014;47.690;9.130;2023-11-21T15:32:01;9.00;99.90
11908;DHT22;6014;47.690;9.130;2023-11-21T15:34:29;9.00;99.90
11908;DHT22;6014;47.690;9.130;2023-11-21T15:36:58;8.90;99.90
11908;DHT22;6014;47.690;9.130;2023-11-21T15:39:26;8.70;99.90
11908;DHT22;6014;47.690;9.130;2023-11-21T15:41:57;8.60;99.90
11908;DHT22;6014;47.690;9.130;2023-11-21T15:44:27;8.60;99.90
11908;DHT22;6014;47.690;9.130;2023-11-21T15:46:56;8.50;99.90
11908;DHT22;6014;47.690;9.130;2023-11-21T15:49:26;8.50;99.90
11908;DHT22;6014;47.690;9.130;2023-11-21T15:51:56;8.50;99.90
11908;DHT22;6014;47.690;9.130;2023-11-21T15:54:26;8.60;99.90
11908;DHT22;6014;47.690;9.130;2023-11-21T15:56:57;8.60;99.90
11908;DHT22;6014;47.690;9.130;2023-11-21T15:59:28;8.50;99.90
11908;DHT22;6014;47.690;9.130;2023-11-21T16:01:59;8.30;99.90
11908;DHT22;6014;47.690;9.130;2023-11-21T16:04:42;8.30;99.90
11908;DHT22;6014;47.690;9.130;2023-11-21T16:07:10;8.30;99.90
11908;DHT22;6014;47.690;9.130;2023-11-21T16:09:39;8.30;99.90
11908;DHT22;6014;47.690;9.130;2023-11-21T16:12:10;8.30;99.90
11908;DHT22;6014;47.690;9.130;2023-11-21T16:14:40;8.30;99.90
11908;DHT22;6014;47.690;9.130;2023-11-21T16:17:11;8.40;99.90
11908;DHT22;6014;47.690;9.130;2023-11-21T16:19:41;8.50;99.90
11908;DHT22;6014;47.690;9.130;2023-11-21T16:22:10;8.40;99.90
11908;DHT22;6014;47.690;9.130;2023-11-21T16:24:38;8.20;99.90
11908;DHT22;6014;47.690;9.130;2023-11-21T16:27:06;8.20;99.90
11908;DHT22;6014;47.690;9.130;2023-11-21T16:29:37;8.20;99.90
11908;DHT22;6014;47.690;9.130;2023-11-21T16:32:20;8.20;99.90
11908;DHT22;6014;47.690;9.130;2023-11-21T16:34:48;8.20;99.90
11908;DHT22;6014;47.690;9.130;2023-11-21T16:37:17;8.10;99.90
11908;DHT22;6014;47.690;9.130;2023-11-21T16:39:45;8.10;99.90